Time;durP1;ratioP1;P1;durP2;ratioP2;P2;SDS_P1;SDS_P2;PMS_P1;PMS_P2;Temp;Humidity;BMP_temperature;BMP_pressure;BME280_temperature;BME280_humidity;BME280_pressure;Samples;Min_cycle;Max_cycle;Signal;HPM_P1;HPM_P2
2021/11/29 00:00:51;;;;;;;31.85;21.90;;;;;;;2.53;96.08;98351.95;2920376;81;20944;-69
2021/11/29 00:04:53;;;;;;;27.90;18.62;;;;;;;2.52;95.84;98355.53;2920087;81;21432;-71
2021/11/29 00:08:55;;;;;;;31.00;21.20;;;;;;;2.56;95.74;98365.31;2920476;81;21027;-70
2021/11/29 00:12:57;;;;;;;28.20;20.75;;;;;;;2.53;96.17;98352.41;2920034;81;21014;-69
2021/11/29 00:16:59;;;;;;;34.88;23.62;;;;;;;2.55;95.92;98355.74;2920780;81;21383;-69
2021/11/29 00:21:01;;;;;;;32.20;21.10;;;;;;;2.61;95.67;98361.84;2920192;81;21018;-69
2021/11/29 00:25:05;;;;;;;34.90;24.55;;;;;;;2.77;95.28;98373.75;2920467;81;21015;-69
2021/11/29 00:29:07;;;;;;;35.35;23.15;;;;;;;2.88;94.94;98373.70;2920073;79;21057;-70
2021/11/29 00:33:11;;;;;;;33.18;22.05;;;;;;;3.00;94.29;98375.80;2920072;81;21062;-72
2021/11/29 00:37:13;;;;;;;33.48;24.92;;;;;;;3.15;93.97;98381.62;2920275;81;20999;-70
2021/11/29 00:41:15;;;;;;;30.43;19.57;;;;;;;3.22;93.27;98378.84;2920026;81;21019;-72
2021/11/29 00:45:17;;;;;;;33.80;21.65;;;;;;;3.31;92.88;98383.83;2924549;81;21030;-69
2021/11/29 00:49:19;;;;;;;28.47;19.87;;;;;;;3.36;92.29;98379.02;2929876;80;21020;-69
2021/11/29 00:53:21;;;;;;;26.37;20.05;;;;;;;3.42;92.09;98380.30;2929580;81;21022;-70
2021/11/29 00:57:23;;;;;;;32.83;23.98;;;;;;;3.44;91.74;98390.21;2929528;81;21033;-72
2021/11/29 01:01:24;;;;;;;32.80;20.10;;;;;;;3.32;91.63;98393.84;2929333;80;21038;-72
2021/11/29 01:05:27;;;;;;;32.60;21.17;;;;;;;3.06;92.52;98400.75;2928961;81;20983;-70
2021/11/29 01:09:29;;;;;;;27.65;18.62;;;;;;;2.91;93.09;98403.65;2929434;80;21018;-70
2021/11/29 01:13:31;;;;;;;33.60;23.25;;;;;;;2.77;93.63;98398.69;2929604;81;21058;-70
2021/11/29 01:17:32;;;;;;;29.40;20.12;;;;;;;2.72;94.18;98395.11;2929232;80;21022;-70
2021/11/29 01:21:35;;;;;;;30.17;21.75;;;;;;;2.67;94.29;98394.65;2929392;80;20994;-70
2021/11/29 01:25:37;;;;;;;29.55;20.48;;;;;;;2.57;94.85;98397.17;2929198;80;20994;-72
2021/11/29 01:29:39;;;;;;;42.27;22.85;;;;;;;2.61;94.80;98399.91;2929358;81;21054;-70
2021/11/29 01:33:40;;;;;;;32.50;21.97;;;;;;;2.54;95.13;98407.88;2929476;80;20979;-70
2021/11/29 01:37:42;;;;;;;29.82;22.85;;;;;;;2.57;94.95;98408.48;2929606;80;20975;-70
2021/11/29 01:41:46;;;;;;;25.08;18.32;;;;;;;2.53;95.08;98399.19;2929363;81;20963;-70
2021/11/29 01:45:53;;;;;;;33.60;20.15;;;;;;;2.55;94.85;98396.42;2923538;81;21058;-70
2021/11/29 01:49:54;;;;;;;28.10;18.57;;;;;;;2.54;94.71;98400.02;2919835;81;21658;-70
2021/11/29 01:53:56;;;;;;;29.65;17.55;;;;;;;2.46;94.80;98403.73;2919844;81;20948;-70
2021/11/29 01:57:59;;;;;;;29.15;17.17;;;;;;;2.37;94.91;98395.64;2920193;81;21003;-72
2021/11/29 02:02:01;;;;;;;25.88;16.70;;;;;;;2.23;95.42;98399.80;2919744;81;21373;-74
2021/11/29 02:06:04;;;;;;;27.20;19.85;;;;;;;2.19;95.57;98401.82;2919646;81;21038;-74
2021/11/29 02:10:06;;;;;;;24.00;16.00;;;;;;;2.28;95.49;98383.22;2920147;81;21007;-68
2021/11/29 02:14:09;;;;;;;28.57;18.60;;;;;;;2.28;94.76;98386.69;2919825;81;20983;-72
2021/11/29 02:18:10;;;;;;;23.32;14.53;;;;;;;2.32;94.35;98386.45;2919866;81;21038;-74
2021/11/29 02:22:12;;;;;;;25.05;17.75;;;;;;;2.31;94.70;98384.28;2919822;81;21030;-74
2021/11/29 02:26:15;;;;;;;20.50;15.85;;;;;;;2.35;95.09;98387.02;2919731;80;21034;-74
2021/11/29 02:30:22;;;;;;;22.87;15.40;;;;;;;2.36;94.98;98388.72;2919859;81;21030;-72
2021/11/29 02:34:28;;;;;;;21.80;14.95;;;;;;;2.36;94.39;98393.97;2920199;81;20952;-72
2021/11/29 02:38:30;;;;;;;20.57;14.85;;;;;;;2.36;93.70;98393.97;2920277;81;21026;-73
2021/11/29 02:42:32;;;;;;;14.55;12.25;;;;;;;2.18;93.43;98401.95;2957456;79;21117;-74
2021/11/29 02:46:35;;;;;;;16.82;11.55;;;;;;;2.19;93.37;98408.87;2968994;80;21507;-75
2021/11/29 02:50:38;;;;;;;19.45;13.78;;;;;;;1.97;93.20;98419.70;2970623;80;21058;-73
2021/11/29 02:54:41;;;;;;;23.22;16.20;;;;;;;1.95;94.02;98424.20;2970363;79;21526;-76
2021/11/29 02:58:42;;;;;;;19.98;14.15;;;;;;;2.03;94.06;98430.17;2970162;79;21499;-74
2021/11/29 03:02:44;;;;;;;27.25;16.97;;;;;;;1.89;93.48;98422.05;2970005;80;20991;-77
2021/11/29 03:06:46;;;;;;;21.27;13.70;;;;;;;1.92;93.61;98421.36;2968938;79;20995;-75
2021/11/29 03:10:48;;;;;;;28.00;16.20;;;;;;;1.75;93.19;98425.23;2970196;79;21042;-77
2021/11/29 03:14:50;;;;;;;20.35;15.18;;;;;;;1.64;93.62;98419.48;2971159;79;20986;-77
2021/11/29 03:18:52;;;;;;;21.85;14.63;;;;;;;1.52;94.37;98416.49;2971857;80;20960;-77
2021/11/29 03:22:53;;;;;;;23.27;17.40;;;;;;;1.52;94.34;98416.49;2972146;79;21057;-77
2021/11/29 03:26:55;;;;;;;22.42;13.03;;;;;;;1.49;93.90;98425.41;2971841;80;20971;-77
2021/11/29 03:30:57;;;;;;;25.97;16.10;;;;;;;1.45;94.45;98418.73;2972154;79;21442;-75
2021/11/29 03:34:58;;;;;;;40.38;19.02;;;;;;;1.46;94.24;98426.95;2971771;80;22425;-77
2021/11/29 03:39:05;;;;;;;19.95;15.00;;;;;;;1.48;94.42;98434.22;2971502;80;21026;-77
2021/11/29 03:43:06;;;;;;;;;;;;;;;1.46;94.12;98426.95;2972993;79;21064;-77
2021/11/29 03:47:08;;;;;;;32.00;17.12;;;;;;;1.29;94.85;98442.61;2979237;80;20137;-74
2021/11/29 03:51:10;;;;;;;28.12;18.90;;;;;;;1.33;94.51;98441.43;2981349;78;21053;-78
2021/11/29 03:55:12;;;;;;;26.68;17.02;;;;;;;1.39;94.37;98444.08;2981410;79;20987;-76
2021/11/29 03:59:15;;;;;;;29.30;19.95;;;;;;;1.37;94.16;98439.40;2979742;80;21030;-79
2021/11/29 04:03:16;;;;;;;29.77;20.05;;;;;;;1.31;93.73;98432.85;2974023;80;20939;-78
2021/11/29 04:07:18;;;;;;;27.87;20.77;;;;;;;1.28;93.97;98441.76;2975045;80;21027;-75
2021/11/29 04:11:20;;;;;;;40.88;21.12;;;;;;;1.28;94.17;98443.56;2979133;79;21010;-75
2021/11/29 04:15:22;;;;;;;35.10;20.77;;;;;;;1.21;93.69;98448.41;2979670;80;21010;-77
2021/11/29 04:19:24;;;;;;;37.42;21.12;;;;;;;1.28;93.79;98451.42;2980578;80;20936;-68
2021/11/29 04:23:26;;;;;;;27.22;19.15;;;;;;;1.28;93.54;98453.55;2981483;79;21015;-71
2021/11/29 04:27:29;;;;;;;29.27;18.70;;;;;;;1.25;93.89;98439.37;2981179;79;21030;-73
2021/11/29 04:31:31;;;;;;;31.62;21.02;;;;;;;1.11;93.20;98439.53;2981075;79;21537;-73
2021/11/29 04:35:33;;;;;;;32.93;23.12;;;;;;;1.17;92.97;98437.77;2981665;79;21019;-74
2021/11/29 04:39:36;;;;;;;25.97;15.83;;;;;;;1.13;92.92;98446.34;2981882;80;20956;-70
2021/11/29 04:43:38;;;;;;;24.43;15.53;;;;;;;1.05;93.23;98442.60;2981750;79;21007;-74
2021/11/29 04:47:39;;;;;;;30.40;18.30;;;;;;;0.98;93.58;98450.91;2973385;79;21034;-72
2021/11/29 04:51:41;;;;;;;20.65;14.38;;;;;;;0.98;93.97;98457.91;2971963;79;21007;-73
2021/11/29 04:55:43;;;;;;;23.80;16.25;;;;;;;0.95;93.92;98451.09;2972063;79;21524;-73
2021/11/29 04:59:44;;;;;;;26.90;16.27;;;;;;;0.90;93.98;98452.40;2970638;80;21015;-70
2021/11/29 05:03:46;;;;;;;31.02;16.82;;;;;;;0.86;93.78;98462.24;2968282;79;21062;-70
2021/11/29 05:07:48;;;;;;;30.35;17.95;;;;;;;0.82;94.24;98455.56;2971338;79;21030;-71
2021/11/29 05:11:50;;;;;;;31.55;19.12;;;;;;;0.85;94.44;98460.57;2968470;79;20975;-72
2021/11/29 05:15:52;;;;;;;25.32;16.20;;;;;;;0.88;94.54;98464.27;2965464;80;21057;-74
2021/11/29 05:19:53;;;;;;;25.65;16.55;;;;;;;0.83;94.77;98463.77;2964595;80;21006;-74
2021/11/29 05:23:55;;;;;;;28.23;17.62;;;;;;;0.89;95.18;98463.82;2964630;80;20967;-77
2021/11/29 05:27:57;;;;;;;28.27;17.35;;;;;;;0.89;94.67;98462.51;2963711;80;21562;-77
2021/11/29 05:31:58;;;;;;;26.15;17.92;;;;;;;0.91;94.55;98464.05;2966256;80;20944;-75
2021/11/29 05:36:00;;;;;;;27.98;17.90;;;;;;;0.84;94.16;98467.58;2971195;79;21019;-79
2021/11/29 05:40:03;;;;;;;23.80;16.27;;;;;;;0.84;94.50;98462.34;2971063;79;21018;-74
2021/11/29 05:44:04;;;;;;;31.82;18.65;;;;;;;0.69;94.57;98462.95;2970758;79;21031;-71
2021/11/29 05:48:06;;;;;;;30.45;19.20;;;;;;;0.70;95.05;98486.05;2975630;80;21041;-71
2021/11/29 05:52:08;;;;;;;29.48;16.57;;;;;;;0.72;96.03;98488.09;2980858;80;20987;-71
2021/11/29 05:56:09;;;;;;;28.87;19.95;;;;;;;0.70;96.08;98498.66;2980913;78;21488;-70
2021/11/29 06:00:17;;;;;;;33.02;20.37;;;;;;;0.82;96.56;98497.44;2980979;80;21037;-72
2021/11/29 06:04:19;;;;;;;29.80;19.32;;;;;;;0.76;97.17;98493.92;2981008;80;21051;-69
2021/11/29 06:08:21;;;;;;;31.65;17.60;;;;;;;0.81;97.28;98504.44;2980834;80;21032;-72
2021/11/29 06:12:23;;;;;;;22.30;15.75;;;;;;;0.87;97.20;98503.64;2980858;80;21033;-70
2021/11/29 06:16:24;;;;;;;32.50;20.65;;;;;;;0.91;97.08;98511.18;2981024;80;21574;-70
2021/11/29 06:20:26;;;;;;;35.15;22.27;;;;;;;0.92;97.05;98508.10;2980823;80;21040;-70
2021/11/29 06:24:28;;;;;;;40.38;22.07;;;;;;;1.02;97.04;98507.80;2980750;80;21009;-69
2021/11/29 06:28:30;;;;;;;44.25;30.48;;;;;;;1.08;97.17;98513.08;2980719;80;21068;-70
2021/11/29 06:32:32;;;;;;;50.98;29.77;;;;;;;1.14;96.95;98512.63;2980895;78;21509;-71
2021/11/29 06:36:34;;;;;;;40.85;26.45;;;;;;;1.20;96.89;98514.84;2980928;80;21017;-70
2021/11/29 06:40:36;;;;;;;42.70;27.75;;;;;;;1.15;96.92;98526.09;2980962;80;21001;-69
2021/11/29 06:44:38;;;;;;;46.60;26.33;;;;;;;1.22;97.14;98524.73;2980767;80;20982;-72
2021/11/29 06:48:41;;;;;;;34.60;19.82;;;;;;;1.27;96.92;98529.16;2922756;80;21046;-70
2021/11/29 06:52:43;;;;;;;34.18;21.90;;;;;;;1.26;96.66;98534.49;2952905;80;21029;-71
2021/11/29 06:56:45;;;;;;;49.83;31.02;;;;;;;1.31;96.79;98535.48;2952578;80;20950;-69
2021/11/29 07:00:48;;;;;;;44.90;27.15;;;;;;;1.37;97.02;98539.81;2952703;80;21037;-70
2021/11/29 07:04:50;;;;;;;50.15;25.27;;;;;;;1.48;96.97;98540.84;2952850;80;20998;-71
2021/11/29 07:08:51;;;;;;;43.23;24.37;;;;;;;1.46;96.94;98544.87;2952137;80;21026;-70
2021/11/29 07:12:54;;;;;;;43.60;26.75;;;;;;;1.55;96.65;98548.12;2952944;80;20983;-71
2021/11/29 07:16:56;;;;;;;45.28;28.85;;;;;;;1.65;96.45;98553.53;2952216;79;21009;-72
2021/11/29 07:20:58;;;;;;;52.80;29.35;;;;;;;1.74;96.59;98563.82;2952482;80;21006;-70
2021/11/29 07:25:03;;;;;;;39.27;23.52;;;;;;;1.77;96.45;98564.08;2952785;80;21002;-70
2021/11/29 07:29:04;;;;;;;44.77;28.17;;;;;;;1.90;96.33;98562.24;2952526;80;21053;-71
2021/11/29 07:33:07;;;;;;;43.28;24.52;;;;;;;1.99;95.97;98567.28;2952837;80;21041;-71
2021/11/29 07:37:09;;;;;;;37.83;25.50;;;;;;;2.03;95.45;98575.28;2952624;80;20959;-69
2021/11/29 07:41:10;;;;;;;37.17;22.95;;;;;;;2.07;95.25;98573.28;2952370;80;20975;-69
2021/11/29 07:45:13;;;;;;;47.60;30.10;;;;;;;2.01;95.49;98578.49;2954010;79;21030;-70
2021/11/29 07:49:15;;;;;;;41.88;23.42;;;;;;;2.01;95.34;98577.19;2958289;79;21032;-71
2021/11/29 07:53:16;;;;;;;39.88;29.63;;;;;;;1.99;95.41;98589.09;2985409;77;21013;-71
2021/11/29 07:57:18;;;;;;;47.13;28.20;;;;;;;1.99;95.53;98579.09;2985492;79;21029;-70
2021/11/29 08:01:20;;;;;;;34.18;22.95;;;;;;;1.99;95.79;98581.71;2985624;79;21013;-71
2021/11/29 08:05:25;;;;;;;37.23;24.63;;;;;;;1.97;95.86;98586.23;2985612;79;21029;-69
2021/11/29 08:09:26;;;;;;;42.20;27.10;;;;;;;1.95;95.88;98599.91;2985685;79;20993;-71
2021/11/29 08:13:28;;;;;;;38.83;25.50;;;;;;;1.95;96.21;98599.91;2985565;79;20985;-69
2021/11/29 08:17:30;;;;;;;40.63;23.55;;;;;;;1.99;96.11;98593.52;2985369;79;20993;-71
2021/11/29 08:21:32;;;;;;;40.58;25.92;;;;;;;2.01;96.15;98602.09;2984996;79;21009;-71
2021/11/29 08:25:34;;;;;;;44.77;26.90;;;;;;;2.07;95.76;98605.58;2985292;79;21031;-69
2021/11/29 08:29:36;;;;;;;65.28;26.15;;;;;;;2.16;95.62;98605.83;2985754;79;20997;-70
2021/11/29 08:33:38;;;;;;;47.30;26.07;;;;;;;2.26;95.48;98611.63;2985657;79;21068;-71
2021/11/29 08:37:49;;;;;;;34.63;22.22;;;;;;;2.29;94.88;98617.10;2985432;79;21072;-71
2021/11/29 08:41:51;;;;;;;36.33;25.82;;;;;;;2.37;94.42;98616.53;2985094;79;21017;-70
2021/11/29 08:45:54;;;;;;;41.00;23.77;;;;;;;2.39;93.98;98622.50;2980429;78;21030;-70
2021/11/29 08:49:55;;;;;;;35.45;21.45;;;;;;;2.43;93.70;98621.31;2952723;80;21014;-71
2021/11/29 08:53:58;;;;;;;36.58;23.30;;;;;;;2.52;93.49;98631.14;2952887;80;21010;-70
2021/11/29 08:58:00;;;;;;;33.53;17.20;;;;;;;2.58;93.34;98632.47;2952855;80;20990;-70
2021/11/29 09:02:02;;;;;;;36.60;23.42;;;;;;;2.51;93.14;98633.86;2952961;80;21033;-69
2021/11/29 09:06:05;;;;;;;45.38;26.68;;;;;;;2.67;92.77;98649.32;2952903;79;20947;-70
2021/11/29 09:10:10;;;;;;;37.90;23.18;;;;;;;2.78;92.42;98659.02;2952728;80;20983;-72
2021/11/29 09:14:12;;;;;;;42.03;24.20;;;;;;;2.80;91.92;98667.61;2952950;80;20982;-70
2021/11/29 09:18:15;;;;;;;42.90;22.32;;;;;;;2.74;91.77;98677.23;2953085;80;20998;-72
2021/11/29 09:22:17;;;;;;;41.92;27.05;;;;;;;2.73;92.02;98672.94;2952886;80;20962;-69
2021/11/29 09:26:18;;;;;;;46.30;27.50;;;;;;;2.82;92.10;98670.95;2953126;80;21026;-71
2021/11/29 09:30:21;;;;;;;29.50;21.25;;;;;;;2.84;92.19;98682.17;2953024;80;21069;-70
2021/11/29 09:34:23;;;;;;;45.43;25.75;;;;;;;2.75;92.30;98681.54;2952970;80;21029;-69
2021/11/29 09:38:25;;;;;;;40.40;21.62;;;;;;;2.79;92.54;98687.77;2953053;80;21101;-70
2021/11/29 09:42:26;;;;;;;35.88;25.02;;;;;;;2.71;92.56;98692.27;2953010;80;20959;-71
2021/11/29 09:46:29;;;;;;;40.20;28.20;;;;;;;2.69;92.86;98686.80;2952955;80;21014;-70
2021/11/29 09:50:31;;;;;;;40.92;26.55;;;;;;;2.75;92.80;98690.73;2952815;79;20990;-70
2021/11/29 09:54:33;;;;;;;22.00;14.85;;;;;;;2.72;92.97;98683.94;2952915;80;20982;-72
2021/11/29 09:58:35;;;;;;;24.07;13.30;;;;;;;2.56;91.28;98690.33;2953291;80;21014;-70
2021/11/29 10:02:37;;;;;;;35.80;22.58;;;;;;;2.71;91.77;98690.14;2952826;80;20955;-71
2021/11/29 10:06:39;;;;;;;19.27;13.98;;;;;;;2.57;92.09;98689.37;2953216;80;21018;-71
2021/11/29 10:10:48;;;;;;;20.65;12.80;;;;;;;2.53;90.73;98694.50;2952805;80;21054;-72
2021/11/29 10:15:28;;;;;;;16.93;12.60;;;;;;;2.53;90.45;98685.31;2952910;80;20998;-70
2021/11/29 10:19:35;;;;;;;18.65;13.03;;;;;;;2.64;90.61;98683.20;2952959;80;21022;-72
2021/11/29 10:23:48;;;;;;;20.20;14.30;;;;;;;2.70;90.23;98684.04;2990433;79;21020;-69
2021/11/29 10:27:50;;;;;;;23.57;15.58;;;;;;;2.82;90.84;98676.20;2994671;78;21025;-69
2021/11/29 10:31:55;;;;;;;24.32;15.35;;;;;;;2.98;90.44;98680.66;2994553;79;21095;-70
2021/11/29 10:36:19;;;;;;;23.57;16.90;;;;;;;2.91;89.86;98682.06;2994539;79;21084;-69
2021/11/29 10:40:21;;;;;;;27.27;18.05;;;;;;;3.03;90.11;98683.41;2994577;79;21049;-71
2021/11/29 10:44:27;;;;;;;23.90;16.12;;;;;;;2.98;90.81;98684.59;2994586;79;21501;-72
2021/11/29 10:48:30;;;;;;;23.47;18.07;;;;;;;2.93;91.35;98684.09;3000884;79;20981;-70
2021/11/29 10:52:33;;;;;;;27.58;17.92;;;;;;;2.99;91.86;98688.90;3003864;79;21016;-72
2021/11/29 10:56:38;;;;;;;23.00;16.35;;;;;;;2.87;92.58;98681.94;3004325;79;21080;-72
2021/11/29 11:00:40;;;;;;;33.38;19.10;;;;;;;2.86;92.65;98680.27;3003785;79;20977;-72
2021/11/29 11:04:45;;;;;;;35.98;24.37;;;;;;;2.83;93.18;98679.19;3003642;78;20989;-71
2021/11/29 11:08:47;;;;;;;28.12;19.52;;;;;;;2.81;93.18;98671.91;3004015;79;21036;-71
2021/11/29 11:12:54;;;;;;;44.70;22.95;;;;;;;2.82;93.02;98676.20;3003930;79;21067;-71
2021/11/29 11:17:11;;;;;;;42.58;26.90;;;;;;;2.91;92.92;98670.73;3001328;78;21025;-72
2021/11/29 11:21:16;;;;;;;52.30;33.60;;;;;;;3.02;92.54;98678.61;3003703;79;21044;-72
2021/11/29 11:25:28;;;;;;;34.17;22.27;;;;;;;3.01;92.25;98673.00;2979966;79;21027;-72
2021/11/29 11:29:38;;;;;;;24.90;16.97;;;;;;;3.05;92.33;98669.67;2963267;80;20983;-70
2021/11/29 11:33:58;;;;;;;33.40;19.40;;;;;;;2.94;92.33;98673.94;2964149;80;21018;-70
2021/11/29 11:38:13;;;;;;;31.77;20.37;;;;;;;2.89;92.87;98672.15;2963849;80;21030;-70
2021/11/29 11:42:15;;;;;;;34.90;22.87;;;;;;;2.88;93.37;98683.61;2964283;80;21018;-70
2021/11/29 11:46:21;;;;;;;24.70;16.67;;;;;;;2.87;93.54;98681.94;2963736;80;20955;-70
2021/11/29 11:50:26;;;;;;;36.68;24.32;;;;;;;2.93;92.46;98687.20;2960262;80;21034;-70
2021/11/29 11:54:28;;;;;;;28.10;18.42;;;;;;;3.02;92.65;98694.87;2959795;79;21022;-73
2021/11/29 11:58:41;;;;;;;34.78;23.83;;;;;;;3.03;92.46;98688.16;2959869;80;20982;-69
2021/11/29 12:03:10;;;;;;;41.25;24.92;;;;;;;3.07;92.92;98695.34;2958927;80;21066;-72
2021/11/29 12:07:10;;;;;;;40.98;25.82;;;;;;;3.14;92.87;98697.85;2959439;80;21002;-71
2021/11/29 12:11:45;;;;;;;36.17;25.50;;;;;;;3.09;92.99;98694.28;2959964;80;21077;-70
2021/11/29 12:15:54;;;;;;;26.97;17.50;;;;;;;3.18;93.06;98698.00;2959629;80;21688;-71
2021/11/29 12:20:07;;;;;;;29.65;19.75;;;;;;;3.16;93.43;98697.28;2959801;80;20979;-71
2021/11/29 12:24:17;;;;;;;31.48;21.45;;;;;;;3.18;93.13;98699.78;2958891;80;21015;-71
2021/11/29 12:28:39;;;;;;;33.65;23.80;;;;;;;3.20;93.01;98700.03;2958828;80;21023;-71
2021/11/29 12:32:53;;;;;;;31.62;21.93;;;;;;;3.24;93.22;98700.15;2959947;80;21046;-70
2021/11/29 12:37:03;;;;;;;50.75;28.83;;;;;;;3.28;92.73;98700.27;2959738;80;20975;-72
2021/11/29 12:41:06;;;;;;;37.35;24.72;;;;;;;3.24;92.67;98708.03;2959810;80;20955;-70
2021/11/29 12:45:20;;;;;;;28.62;18.55;;;;;;;3.26;92.75;98711.38;2959600;80;21022;-72
2021/11/29 12:49:38;;;;;;;54.60;29.12;;;;;;;3.12;93.42;98706.33;2959393;80;21054;-72
2021/11/29 12:53:41;;;;;;;43.05;30.30;;;;;;;2.98;94.03;98708.24;2960152;80;21022;-70
2021/11/29 12:57:43;;;;;;;47.30;24.55;;;;;;;2.99;94.39;98707.28;2959602;80;21006;-70
2021/11/29 13:01:45;;;;;;;37.23;27.13;;;;;;;2.95;94.72;98700.59;2959373;80;21026;-70
2021/11/29 13:06:01;;;;;;;28.55;20.68;;;;;;;2.93;94.77;98695.91;2959518;80;20994;-70
2021/11/29 13:10:03;;;;;;;35.35;20.97;;;;;;;2.96;94.30;98710.61;2959927;80;21046;-72
2021/11/29 13:14:17;;;;;;;35.95;22.80;;;;;;;3.04;94.11;98720.55;2959684;80;21054;-71
2021/11/29 13:18:53;;;;;;;29.20;21.60;;;;;;;3.13;93.93;98722.45;2959005;80;21393;-71
2021/11/29 13:23:00;;;;;;;32.85;21.17;;;;;;;3.19;93.38;98728.58;2960056;80;21006;-70
2021/11/29 13:27:17;;;;;;;34.67;18.42;;;;;;;3.12;94.22;98722.95;2959761;80;20975;-71
2021/11/29 13:31:32;;;;;;;22.80;14.95;;;;;;;3.07;94.14;98729.50;2957962;80;21018;-71
2021/11/29 13:35:35;;;;;;;25.08;16.48;;;;;;;3.00;94.36;98733.06;2959651;80;21011;-71
2021/11/29 13:39:45;;;;;;;31.97;19.77;;;;;;;3.09;94.65;98736.78;2959641;80;21030;-71
2021/11/29 13:43:47;;;;;;;28.57;18.90;;;;;;;2.93;94.55;98736.63;2959826;80;20987;-71
2021/11/29 13:47:54;;;;;;;36.20;19.87;;;;;;;2.91;94.46;98729.34;2933135;80;20974;-71
2021/11/29 13:51:56;;;;;;;36.23;18.42;;;;;;;3.01;94.69;98742.62;2912012;81;21057;-71
2021/11/29 13:55:59;;;;;;;29.70;19.82;;;;;;;3.03;94.47;98748.59;2910790;81;21573;-72
2021/11/29 14:00:11;;;;;;;31.42;20.40;;;;;;;3.09;94.43;98757.81;2911073;81;20974;-72
2021/11/29 14:04:13;;;;;;;32.65;20.25;;;;;;;3.11;94.16;98771.66;2893347;81;21008;-73
2021/11/29 14:08:27;;;;;;;31.65;20.10;;;;;;;3.14;93.99;98765.70;2911340;81;21014;-72
2021/11/29 14:12:50;;;;;;;34.03;21.90;;;;;;;3.04;94.18;98771.28;2911006;81;21014;-73
2021/11/29 14:16:55;;;;;;;44.25;26.33;;;;;;;3.09;94.36;98776.20;2910953;81;21006;-75
2021/11/29 14:21:02;;;;;;;42.57;25.73;;;;;;;3.14;94.47;98790.67;2935471;78;21030;-73
2021/11/29 14:25:06;;;;;;;53.58;31.15;;;;;;;3.16;94.67;98801.55;2967874;79;21010;-73
2021/11/29 14:29:15;;;;;;;35.43;25.15;;;;;;;3.12;94.51;98808.81;2968321;79;21038;-72
2021/11/29 14:33:17;;;;;;;45.40;26.52;;;;;;;3.19;94.28;98799.53;2969092;80;21042;-71
2021/11/29 14:37:26;;;;;;;45.12;27.82;;;;;;;3.19;94.18;98802.16;2969525;79;21038;-74
2021/11/29 14:41:29;;;;;;;41.37;27.62;;;;;;;3.24;94.32;98805.73;2969781;80;20983;-71
2021/11/29 14:45:34;;;;;;;34.38;23.10;;;;;;;3.26;93.41;98812.56;2971159;80;21038;-72
2021/11/29 14:49:35;;;;;;;37.38;21.75;;;;;;;3.26;93.37;98815.68;2977616;80;20984;-72
2021/11/29 14:53:41;;;;;;;34.73;23.70;;;;;;;3.28;93.33;98821.66;2981007;78;21034;-72
2021/11/29 14:57:53;;;;;;;31.62;21.37;;;;;;;3.27;93.06;98821.30;2981060;79;21031;-73
2021/11/29 15:01:59;;;;;;;33.80;20.43;;;;;;;3.20;92.97;98835.37;2981330;80;21073;-74
2021/11/29 15:06:31;;;;;;;25.80;17.37;;;;;;;3.29;92.88;98821.52;2981161;79;21015;-76
2021/11/29 15:10:33;;;;;;;30.82;19.80;;;;;;;3.32;92.90;98838.02;2981622;79;21264;-71
2021/11/29 15:14:35;;;;;;;25.72;19.23;;;;;;;3.34;92.94;98840.05;2981178;80;21054;-72
2021/11/29 15:18:37;;;;;;;30.52;21.35;;;;;;;3.32;92.69;98839.33;2981802;79;21606;-72
2021/11/29 15:22:52;;;;;;;32.73;21.25;;;;;;;3.29;92.71;98846.49;2981582;79;21073;-75
2021/11/29 15:26:54;;;;;;;34.43;21.57;;;;;;;3.38;92.27;98840.20;2980386;79;21707;-73
2021/11/29 15:30:57;;;;;;;29.63;19.15;;;;;;;3.39;91.82;98844.50;2981672;79;20959;-75
2021/11/29 15:35:09;;;;;;;30.60;19.65;;;;;;;3.34;90.96;98847.47;2981913;79;21029;-71
2021/11/29 15:39:16;;;;;;;28.98;20.12;;;;;;;3.25;90.59;98857.37;2981224;79;21077;-75
2021/11/29 15:43:32;;;;;;;31.62;21.33;;;;;;;3.27;90.34;98864.17;2978532;78;21125;-77
2021/11/29 15:47:34;;;;;;;30.48;21.05;;;;;;;3.26;89.69;98870.88;2980680;79;20968;-72
2021/11/29 15:51:42;;;;;;;28.75;19.55;;;;;;;3.15;89.60;98866.41;2971939;79;21023;-75
2021/11/29 15:55:44;;;;;;;30.45;19.62;;;;;;;3.09;89.56;98876.04;2971711;79;21007;-75
2021/11/29 15:59:46;;;;;;;32.10;20.75;;;;;;;3.07;89.29;98874.00;2971766;80;20971;-75
2021/11/29 16:03:52;;;;;;;25.52;17.70;;;;;;;3.00;89.02;98874.92;2971728;79;21038;-73
2021/11/29 16:07:54;;;;;;;;;;;;;;;2.90;89.32;98883.95;2974469;79;21026;-73
2021/11/29 16:11:55;;;;;;;35.78;21.37;;;;;;;2.83;89.60;98885.36;2970157;80;20149;-74
2021/11/29 16:15:58;;;;;;;33.95;19.40;;;;;;;2.81;89.94;98903.02;2970137;79;20979;-76
2021/11/29 16:20:00;;;;;;;29.63;16.40;;;;;;;2.79;90.78;98900.48;2970859;79;20940;-76
2021/11/29 16:24:02;;;;;;;32.98;21.57;;;;;;;2.69;91.88;98902.93;2970960;79;21023;-75
2021/11/29 16:28:04;;;;;;;26.40;20.52;;;;;;;2.71;92.42;98901.03;2970784;80;21067;-75
2021/11/29 16:32:07;;;;;;;34.20;22.48;;;;;;;2.73;92.41;98902.70;2970825;79;20983;-80
2021/11/29 16:36:09;;;;;;;29.07;19.37;;;;;;;2.76;92.55;98906.45;2970365;79;20987;-78
2021/11/29 16:40:11;;;;;;;37.13;23.70;;;;;;;2.81;93.19;98906.95;2970500;80;21013;-78
2021/11/29 16:44:13;;;;;;;33.73;23.02;;;;;;;2.82;93.38;98904.20;2970137;80;21054;-80
2021/11/29 16:48:17;;;;;;;37.20;25.15;;;;;;;2.91;93.42;98914.52;2972480;80;21077;-82
2021/11/29 16:52:21;;;;;;;30.70;23.57;;;;;;;2.95;93.46;98917.31;2979623;80;21050;-76
2021/11/29 16:56:23;;;;;;;40.00;26.52;;;;;;;3.08;93.65;98926.45;2979933;79;21030;-76
2021/11/29 17:00:25;;;;;;;36.88;25.75;;;;;;;3.16;93.49;98933.78;2979787;79;21090;-74
2021/11/29 17:04:27;;;;;;;33.00;23.90;;;;;;;3.14;93.64;98925.14;2979830;79;21519;-78
2021/11/29 17:08:29;;;;;;;34.60;23.05;;;;;;;3.07;94.33;98923.92;2980116;79;21027;-70
2021/11/29 17:12:32;;;;;;;28.47;21.90;;;;;;;3.18;94.00;98931.02;2981337;79;21057;-72
2021/11/29 17:16:34;;;;;;;39.05;22.50;;;;;;;3.09;94.14;98929.45;2981324;79;21050;-72
2021/11/29 17:20:36;;;;;;;34.45;21.12;;;;;;;3.08;94.31;98937.42;2980813;79;21049;-73
2021/11/29 17:24:39;;;;;;;32.83;24.45;;;;;;;2.89;95.09;98930.87;2979413;79;21058;-77
2021/11/29 17:28:41;;;;;;;31.20;21.12;;;;;;;3.00;95.12;98941.45;2977769;78;21041;-79
2021/11/29 17:32:45;;;;;;;35.73;20.85;;;;;;;2.99;94.80;98947.66;2978158;79;21284;-80
2021/11/29 17:36:49;;;;;;;34.65;23.70;;;;;;;3.03;94.95;98954.83;2977109;80;20971;-80
2021/11/29 17:40:50;;;;;;;38.88;25.15;;;;;;;3.10;94.70;98948.66;2976703;80;21100;-80
2021/11/29 17:44:52;;;;;;;32.93;17.80;;;;;;;3.12;94.67;98940.19;2977074;80;21457;-79
2021/11/29 17:48:54;;;;;;;30.77;18.05;;;;;;;3.04;94.16;98949.11;2977541;79;21053;-79
2021/11/29 17:52:56;;;;;;;27.98;19.60;;;;;;;3.03;94.50;98951.38;2979157;80;21034;-81
2021/11/29 17:56:58;;;;;;;23.18;16.65;;;;;;;3.02;94.49;98958.41;2979335;79;21072;-77
2021/11/29 18:01:00;;;;;;;30.30;18.25;;;;;;;3.03;93.15;98965.83;2979162;79;20971;-81
2021/11/29 18:05:02;;;;;;;24.40;15.45;;;;;;;3.03;92.51;98969.77;2978798;80;21054;-79
2021/11/29 18:13:10;;;;;;;31.65;19.95;;;;;;;2.92;91.30;98968.73;2978529;80;21031;-81
2021/11/29 18:17:12;;;;;;;25.90;16.30;;;;;;;2.91;90.38;98980.67;2978423;78;21031;-77
2021/11/29 18:21:14;;;;;;;27.00;15.35;;;;;;;2.87;90.27;98971.34;2978546;79;21029;-79
2021/11/29 18:25:16;;;;;;;23.00;14.10;;;;;;;2.76;90.52;98986.55;2978416;79;21018;-81
2021/11/29 18:29:19;;;;;;;22.85;15.05;;;;;;;2.78;90.43;98976.77;2978333;79;21003;-80
2021/11/29 18:33:21;;;;;;;25.82;13.38;;;;;;;2.76;90.36;98991.80;2977779;78;21034;-78
2021/11/29 18:37:23;;;;;;;23.57;12.88;;;;;;;2.65;89.89;99004.34;2977923;79;21026;-79
2021/11/29 18:41:25;;;;;;;18.57;13.70;;;;;;;2.63;89.89;99004.47;2978034;80;21018;-80
2021/11/29 18:45:27;;;;;;;21.48;14.83;;;;;;;2.71;90.00;98999.99;2977910;79;21010;-74
2021/11/29 18:49:30;;;;;;;28.23;12.60;;;;;;;2.77;89.97;99014.48;2973700;79;23316;-74
2021/11/29 18:53:32;;;;;;;28.23;14.87;;;;;;;2.86;89.66;99015.14;2968472;80;21077;-75
2021/11/29 18:57:37;;;;;;;24.20;15.60;;;;;;;2.88;89.99;99009.80;2968485;79;22266;-76
2021/11/29 19:01:39;;;;;;;20.23;15.35;;;;;;;3.02;90.79;99012.27;2968663;80;21035;-81